Time;durP1;ratioP1;P1;durP2;ratioP2;P2;SDS_P1;SDS_P2;PMS_P1;PMS_P2;Temp;Humidity;BMP_temperature;BMP_pressure;BME280_temperature;BME280_humidity;BME280_pressure;Samples;Min_cycle;Max_cycle;Signal;HPM_P1;HPM_P2
2021/07/28 00:01:21;;;;;;;9.60;8.70;;;;;;;30.40;57.62;101683.59;1640713;87;21044;-50
2021/07/28 00:03:50;;;;;;;10.72;9.68;;;;;;;30.38;57.74;101684.72;1642247;86;21054;-49
2021/07/28 00:06:21;;;;;;;10.50;9.60;;;;;;;30.37;57.83;101681.20;1639936;87;21555;-50
2021/07/28 00:08:48;;;;;;;;;;;;;;;30.36;57.98;101675.95;1644538;86;21582;-51
2021/07/28 00:11:14;;;;;;;11.73;10.20;;;;;;;30.35;58.13;101677.81;1639571;87;20111;-49
2021/07/28 00:13:45;;;;;;;10.90;9.90;;;;;;;30.33;58.17;101674.41;1638255;86;21082;-49
2021/07/28 00:16:15;;;;;;;11.43;10.30;;;;;;;30.31;58.24;101672.36;1622391;87;21102;-50
2021/07/28 00:24:10;;;;;;;10.82;9.83;;;;;;;30.29;58.59;101664.05;1607140;88;21054;-47
2021/07/28 00:26:38;;;;;;;10.25;9.20;;;;;;;30.29;58.65;101663.59;1613124;88;21093;-48
2021/07/28 00:29:05;;;;;;;12.33;10.18;;;;;;;30.26;58.68;101665.16;1610243;88;21110;-48
2021/07/28 00:31:31;;;;;;;11.93;10.70;;;;;;;30.27;58.75;101662.00;1613835;88;21094;-47
2021/07/28 00:33:58;;;;;;;12.88;9.88;;;;;;;30.27;58.76;101664.68;1613923;88;21063;-51
2021/07/28 00:36:24;;;;;;;12.78;10.35;;;;;;;30.26;58.77;101666.51;1632714;87;21552;-48
2021/07/28 00:38:51;;;;;;;13.50;10.60;;;;;;;30.25;58.83;101664.80;1624616;87;21034;-49
2021/07/28 00:41:18;;;;;;;11.53;10.43;;;;;;;30.24;58.88;101663.11;1618474;87;21046;-48
2021/07/28 00:43:45;;;;;;;11.35;10.25;;;;;;;30.23;58.95;101662.74;1618609;88;21112;-48
2021/07/28 00:46:11;;;;;;;12.03;10.75;;;;;;;30.22;59.06;101659.72;1617828;88;21126;-47
2021/07/28 00:48:38;;;;;;;11.12;10.03;;;;;;;30.21;59.12;101662.03;1618173;88;21065;-49
2021/07/28 00:51:05;;;;;;;11.65;10.03;;;;;;;30.20;59.19;101661.69;1604373;88;21119;-49
2021/07/28 00:53:32;;;;;;;12.65;10.72;;;;;;;30.19;59.28;101661.84;1617478;88;21534;-49
2021/07/28 00:58:29;;;;;;;13.72;11.28;;;;;;;30.17;59.41;101661.95;1599703;89;21109;-50
2021/07/28 01:00:56;;;;;;;11.65;10.45;;;;;;;30.16;59.46;101660.27;1588907;89;21057;-48
2021/07/28 01:03:23;;;;;;;11.55;10.35;;;;;;;30.14;59.40;101659.56;1618097;87;21032;-49
2021/07/28 01:05:50;;;;;;;10.05;9.25;;;;;;;30.13;59.48;101659.70;1620875;87;21049;-47
2021/07/28 01:08:16;;;;;;;11.63;10.53;;;;;;;30.12;59.56;101664.70;1617086;87;21556;-50
2021/07/28 01:10:45;;;;;;;11.50;10.50;;;;;;;30.12;59.60;101666.05;1598529;89;21569;-48
2021/07/28 01:13:15;;;;;;;10.55;9.60;;;;;;;30.11;59.60;101659.82;1606935;87;21124;-50
2021/07/28 01:18:13;;;;;;;12.25;10.45;;;;;;;30.08;59.73;101652.05;1576329;89;21132;-51
2021/07/28 01:20:46;;;;;;;10.50;9.40;;;;;;;30.07;59.73;101650.34;1579177;89;21210;-47
2021/07/28 01:23:26;;;;;;;12.30;10.23;;;;;;;30.07;59.72;101654.89;1578658;90;21077;-50
2021/07/28 01:25:53;;;;;;;10.40;9.40;;;;;;;30.05;59.70;101649.63;1523601;93;21104;-50
2021/07/28 01:28:25;;;;;;;10.48;9.53;;;;;;;30.03;59.68;101647.58;1522483;93;21092;-51
2021/07/28 01:31:11;;;;;;;10.68;9.60;;;;;;;30.02;59.71;101641.88;1488311;95;21143;-49
2021/07/28 01:33:39;;;;;;;12.03;9.70;;;;;;;30.02;59.78;101647.23;1478329;96;21711;-52
2021/07/28 01:36:09;;;;;;;10.08;9.18;;;;;;;30.01;59.72;101638.81;1472164;96;21156;-53
2021/07/28 01:38:36;;;;;;;9.20;8.40;;;;;;;30.00;59.69;101635.80;1476867;96;21099;-52
2021/07/28 01:41:04;;;;;;;9.78;8.88;;;;;;;30.00;59.62;101634.45;1475966;96;21158;-51
2021/07/28 01:43:31;;;;;;;9.18;8.38;;;;;;;30.00;59.54;101641.64;1473988;96;21158;-48
2021/07/28 01:45:59;;;;;;;9.18;8.28;;;;;;;30.00;59.42;101644.33;1477168;96;21072;-50
2021/07/28 01:48:25;;;;;;;8.45;7.65;;;;;;;29.99;59.21;101642.12;1470257;96;21613;-51
2021/07/28 01:50:54;;;;;;;8.40;7.65;;;;;;;29.99;58.93;101639.45;1472541;96;21170;-49
2021/07/28 01:53:21;;;;;;;8.70;7.95;;;;;;;29.99;58.74;101638.10;1470010;96;21207;-48
2021/07/28 01:55:48;;;;;;;8.38;7.58;;;;;;;29.98;58.59;101635.08;1442897;96;21209;-49
2021/07/28 01:58:15;;;;;;;7.83;7.05;;;;;;;29.99;58.58;101639.45;1428682;99;21676;-47
2021/07/28 02:00:42;;;;;;;7.97;7.37;;;;;;;29.99;58.49;101642.12;1438469;98;21089;-49
2021/07/28 02:03:08;;;;;;;8.75;7.92;;;;;;;29.98;58.43;101643.13;1432004;99;21200;-50
2021/07/28 02:05:38;;;;;;;7.15;6.45;;;;;;;29.99;58.26;101644.81;1443396;98;21120;-47
2021/07/28 02:08:08;;;;;;;8.05;7.00;;;;;;;29.99;58.17;101642.12;1442701;97;21131;-47
2021/07/28 02:10:37;;;;;;;7.58;6.85;;;;;;;29.99;57.86;101647.50;1439595;97;21110;-47
2021/07/28 02:13:04;;;;;;;7.03;6.33;;;;;;;29.99;57.49;101646.16;1450124;98;21075;-47
2021/07/28 02:15:32;;;;;;;9.30;6.78;;;;;;;29.99;57.37;101650.66;1445065;98;21064;-48
2021/07/28 02:17:59;;;;;;;9.08;5.87;;;;;;;29.98;57.41;101651.19;1453553;97;21592;-50
2021/07/28 02:20:27;;;;;;;6.60;5.90;;;;;;;29.98;57.26;101659.23;1469422;96;21163;-50
2021/07/28 02:22:54;;;;;;;10.25;6.40;;;;;;;29.99;57.10;101658.72;1496536;94;21389;-48
2021/07/28 02:25:20;;;;;;;10.18;6.40;;;;;;;29.99;57.01;101668.97;1507087;93;21110;-52
2021/07/28 02:27:48;;;;;;;9.58;5.80;;;;;;;29.98;56.89;101659.23;1527493;92;21069;-49
2021/07/28 02:30:18;;;;;;;8.80;6.35;;;;;;;29.98;56.71;101668.63;1569621;90;21052;-47
2021/07/28 02:32:45;;;;;;;7.00;5.90;;;;;;;29.98;56.63;101675.34;1578520;90;20996;-50
2021/07/28 02:35:13;;;;;;;9.83;6.53;;;;;;;29.99;56.46;101670.80;1572893;90;21560;-49
2021/07/28 02:37:44;;;;;;;7.12;6.42;;;;;;;29.98;56.30;101665.94;1575737;90;21092;-47
2021/07/28 02:40:14;;;;;;;7.65;5.83;;;;;;;29.98;56.13;101664.60;1569156;90;21052;-46
2021/07/28 02:42:40;;;;;;;7.28;6.15;;;;;;;29.97;55.95;101657.52;1569038;90;21056;-47
2021/07/28 02:45:08;;;;;;;8.45;5.65;;;;;;;29.97;55.81;101657.52;1567459;91;21117;-51
2021/07/28 02:47:35;;;;;;;8.75;5.22;;;;;;;29.96;55.62;101661.20;1570586;90;21614;-47
2021/07/28 02:50:03;;;;;;;7.65;4.97;;;;;;;29.96;55.34;101662.55;1578411;90;21048;-47
2021/07/28 02:52:29;;;;;;;5.55;5.05;;;;;;;29.96;55.11;101657.66;1576462;90;21139;-49
2021/07/28 02:54:56;;;;;;;8.83;5.28;;;;;;;29.95;54.97;101651.44;1542315;92;21065;-50
2021/07/28 02:57:23;;;;;;;5.92;5.33;;;;;;;29.96;54.88;101655.84;1558254;91;21125;-49
2021/07/28 02:59:50;;;;;;;6.47;4.85;;;;;;;29.96;54.86;101655.84;1553216;91;21134;-50
2021/07/28 03:02:17;;;;;;;8.20;5.35;;;;;;;29.97;54.93;101653.49;1547056;91;21073;-49
2021/07/28 03:04:44;;;;;;;12.03;4.92;;;;;;;29.97;55.14;101657.52;1579948;89;21126;-50
2021/07/28 03:07:11;;;;;;;6.50;5.20;;;;;;;29.99;55.25;101654.69;1623899;88;21553;-49
2021/07/28 03:09:38;;;;;;;5.67;4.72;;;;;;;29.99;55.34;101652.01;1615455;88;21104;-50
2021/07/28 03:12:06;;;;;;;7.55;5.22;;;;;;;29.99;55.14;101646.16;1614742;88;21062;-48
2021/07/28 03:14:33;;;;;;;7.67;5.17;;;;;;;29.99;54.98;101646.64;1612731;88;21538;-50
2021/07/28 03:17:00;;;;;;;6.75;5.35;;;;;;;30.01;54.66;101650.03;1616315;88;21062;-46
2021/07/28 03:19:26;;;;;;;5.80;5.03;;;;;;;30.02;54.49;101649.92;1617798;88;21002;-47
2021/07/28 03:21:53;;;;;;;7.33;4.70;;;;;;;30.02;54.30;101644.55;1616731;88;21085;-47
2021/07/28 03:24:19;;;;;;;20.80;14.47;;;;;;;30.05;54.04;101644.27;1616348;88;21026;-52
2021/07/28 03:26:47;;;;;;;24.18;21.57;;;;;;;30.06;53.90;101643.30;1617095;88;21597;-49
2021/07/28 03:29:14;;;;;;;10.85;8.28;;;;;;;30.08;53.79;101637.78;1617148;88;21046;-47
2021/07/28 03:31:40;;;;;;;10.10;6.53;;;;;;;30.10;53.70;101639.83;1618961;88;21081;-51
2021/07/28 03:34:07;;;;;;;8.13;6.17;;;;;;;30.14;53.58;101638.57;1613619;88;21601;-47
2021/07/28 03:36:34;;;;;;;10.98;5.28;;;;;;;30.17;53.55;101631.08;1612371;88;21018;-49
2021/07/28 03:39:00;;;;;;;7.78;4.92;;;;;;;30.25;53.52;101637.95;1619770;88;21089;-50
2021/07/28 03:41:27;;;;;;;5.75;4.58;;;;;;;30.37;53.35;101630.18;1621971;88;21541;-49
2021/07/28 03:43:54;;;;;;;4.90;4.50;;;;;;;30.57;53.07;101631.03;1622448;88;21565;-46
2021/07/28 03:46:20;;;;;;;13.30;8.08;;;;;;;30.83;52.63;101635.36;1624326;87;21047;-46
2021/07/28 03:48:48;;;;;;;18.17;9.05;;;;;;;31.11;52.24;101623.25;1612348;88;21050;-49
2021/07/28 03:51:15;;;;;;;10.75;5.40;;;;;;;31.41;51.75;101622.20;1614499;88;21034;-49
2021/07/28 03:53:42;;;;;;;6.92;4.67;;;;;;;31.66;51.19;101626.92;1614414;88;21074;-50
2021/07/28 03:56:09;;;;;;;15.78;5.25;;;;;;;31.88;50.68;101625.70;1614402;88;21101;-47
2021/07/28 03:58:35;;;;;;;6.75;4.30;;;;;;;32.02;50.32;101624.73;1614894;88;21077;-52
2021/07/28 04:01:02;;;;;;;5.12;4.40;;;;;;;32.14;49.90;101624.51;1604071;88;21105;-49
2021/07/28 04:03:29;;;;;;;7.75;4.00;;;;;;;32.21;49.62;101621.57;1620968;88;21045;-52
2021/07/28 04:05:55;;;;;;;6.72;4.58;;;;;;;32.24;49.41;101624.80;1617776;88;21462;-48
2021/07/28 04:08:22;;;;;;;19.35;5.08;;;;;;;32.22;49.34;101621.91;1618221;87;21077;-51
2021/07/28 04:10:49;;;;;;;7.92;4.53;;;;;;;32.18;49.42;101615.12;1617294;88;21109;-50
2021/07/28 04:13:15;;;;;;;7.20;4.60;;;;;;;32.12;49.48;101619.28;1609596;88;21090;-48
2021/07/28 04:15:43;;;;;;;5.10;4.60;;;;;;;32.04;49.61;101622.74;1614845;88;21050;-50
2021/07/28 04:18:10;;;;;;;6.05;4.05;;;;;;;31.97;49.60;101622.98;1614131;88;21565;-50
2021/07/28 04:20:37;;;;;;;5.45;4.45;;;;;;;31.88;49.64;101615.76;1626991;88;21072;-51
2021/07/28 04:23:04;;;;;;;6.85;4.58;;;;;;;31.84;49.68;101621.09;1620114;88;21057;-47
2021/07/28 04:25:31;;;;;;;6.45;5.85;;;;;;;31.78;49.82;101623.56;1617528;88;21091;-47
2021/07/28 04:27:58;;;;;;;12.30;6.53;;;;;;;31.71;49.94;101616.58;1615013;88;21073;-50
2021/07/28 04:30:25;;;;;;;5.37;4.87;;;;;;;31.67;50.24;101624.60;1637366;86;21630;-53
2021/07/28 04:32:51;;;;;;;17.62;4.35;;;;;;;31.62;50.23;101629.56;1636263;86;21094;-46
2021/07/28 04:35:19;;;;;;;5.37;4.05;;;;;;;31.58;50.34;101628.16;1637536;87;21539;-49
2021/07/28 04:37:46;;;;;;;10.95;5.70;;;;;;;31.55;50.60;101631.13;1637671;86;21577;-50
2021/07/28 04:40:16;;;;;;;9.28;4.95;;;;;;;31.52;51.04;101626.06;1639745;87;21017;-46
2021/07/28 04:42:43;;;;;;;15.80;10.50;;;;;;;31.49;51.46;101626.34;1642048;87;21051;-49
2021/07/28 04:45:11;;;;;;;8.40;4.85;;;;;;;31.47;51.59;101622.95;1614971;87;21073;-51
2021/07/28 04:47:38;;;;;;;4.78;3.80;;;;;;;31.45;51.40;101621.43;1616098;87;21506;-50
2021/07/28 04:50:06;;;;;;;4.42;4.00;;;;;;;31.44;51.18;101625.10;1617534;88;21049;-48
2021/07/28 04:52:33;;;;;;;7.42;4.33;;;;;;;31.43;51.26;101626.94;1616999;88;21613;-48
2021/07/28 04:55:00;;;;;;;6.08;4.15;;;;;;;31.42;51.42;101625.25;1617734;88;21114;-48
2021/07/28 04:57:26;;;;;;;5.10;4.58;;;;;;;31.42;51.67;101627.09;1615775;88;21092;-48
2021/07/28 04:59:53;;;;;;;5.95;4.42;;;;;;;31.41;52.06;101631.61;1614174;88;21101;-48
2021/07/28 05:02:23;;;;;;;4.72;3.95;;;;;;;31.42;52.43;101637.36;1616179;87;21026;-47
2021/07/28 05:04:49;;;;;;;5.70;4.50;;;;;;;31.42;52.77;101630.64;1608496;87;21054;-50
2021/07/28 05:07:18;;;;;;;3.70;3.40;;;;;;;31.43;53.11;101635.00;1618391;87;21534;-47
2021/07/28 05:09:45;;;;;;;4.40;4.00;;;;;;;31.45;53.42;101638.39;1609903;88;21098;-48
2021/07/28 05:12:13;;;;;;;4.35;3.92;;;;;;;31.46;53.68;101632.03;1640008;87;21519;-50
2021/07/28 05:14:40;;;;;;;4.08;3.70;;;;;;;31.47;53.99;101637.75;1637774;87;21552;-48
2021/07/28 05:17:07;;;;;;;3.87;3.55;;;;;;;31.49;54.30;101633.07;1637063;87;21036;-50
2021/07/28 05:19:34;;;;;;;4.40;4.00;;;;;;;31.51;54.30;101632.42;1639728;86;21044;-51
2021/07/28 05:22:01;;;;;;;5.62;4.28;;;;;;;31.53;54.40;101631.78;1625244;86;21551;-48
2021/07/28 05:24:28;;;;;;;6.40;5.50;;;;;;;31.56;54.79;101626.61;1639466;86;21480;-48
2021/07/28 05:26:55;;;;;;;7.58;6.87;;;;;;;31.58;54.59;101633.55;1638082;86;21580;-48
2021/07/28 05:29:22;;;;;;;10.75;5.75;;;;;;;31.62;55.24;101626.02;1646140;86;21139;-50
2021/07/28 05:31:49;;;;;;;6.60;5.53;;;;;;;31.64;55.28;101621.34;1639437;87;21034;-50
2021/07/28 05:34:16;;;;;;;7.10;5.65;;;;;;;31.66;55.25;101625.58;1639752;87;21454;-48
2021/07/28 05:36:42;;;;;;;5.75;5.03;;;;;;;31.72;55.13;101623.64;1638870;86;21493;-50
2021/07/28 05:39:09;;;;;;;6.58;5.03;;;;;;;31.77;54.42;101628.09;1638784;87;21061;-51
2021/07/28 05:41:36;;;;;;;7.33;4.60;;;;;;;31.85;55.51;101628.19;1639503;87;21073;-51
2021/07/28 05:44:07;;;;;;;4.58;4.03;;;;;;;31.94;55.46;101629.17;1633815;86;21080;-51
2021/07/28 05:46:32;;;;;;;5.20;4.70;;;;;;;32.02;55.04;101630.13;1632416;86;21020;-52
2021/07/28 05:48:59;;;;;;;11.65;8.98;;;;;;;32.09;55.03;101624.46;1640716;87;21076;-52
2021/07/28 05:51:26;;;;;;;8.20;6.62;;;;;;;32.16;55.18;101625.20;1640071;87;21075;-49
2021/07/28 05:53:54;;;;;;;7.67;4.72;;;;;;;32.22;55.16;101624.59;1629703;86;21058;-49
2021/07/28 05:56:21;;;;;;;5.10;4.60;;;;;;;32.29;55.14;101623.00;1641784;86;21020;-48
2021/07/28 05:58:48;;;;;;;6.55;5.05;;;;;;;32.39;55.14;101626.47;1632827;86;21061;-51
2021/07/28 06:01:15;;;;;;;5.85;5.20;;;;;;;32.49;55.06;101625.92;1644329;86;21508;-49
2021/07/28 06:03:42;;;;;;;6.40;4.80;;;;;;;32.58;55.06;101626.36;1636046;87;21102;-49
2021/07/28 06:06:09;;;;;;;10.30;4.85;;;;;;;32.66;54.79;101621.05;1619161;87;21049;-49
2021/07/28 06:08:35;;;;;;;7.05;4.70;;;;;;;32.73;54.47;101626.14;1633888;87;21064;-49
2021/07/28 06:11:02;;;;;;;6.83;4.90;;;;;;;32.75;54.38;101626.83;1618229;87;21082;-52
2021/07/28 06:13:29;;;;;;;6.58;5.00;;;;;;;32.75;54.41;101624.14;1633113;87;21011;-48
2021/07/28 06:15:56;;;;;;;6.65;5.00;;;;;;;32.76;54.48;101620.45;1641563;86;21048;-50
2021/07/28 06:18:23;;;;;;;6.92;4.65;;;;;;;32.75;54.29;101617.39;1623848;86;21498;-52
2021/07/28 06:20:50;;;;;;;9.13;4.47;;;;;;;32.72;54.23;101610.49;1620393;87;21004;-51
2021/07/28 06:23:17;;;;;;;6.67;4.87;;;;;;;32.72;54.16;101617.23;1615733;86;21515;-50
2021/07/28 06:25:45;;;;;;;8.05;6.80;;;;;;;32.72;54.24;101620.42;1628898;87;21095;-54
2021/07/28 06:28:12;;;;;;;7.67;5.50;;;;;;;32.70;54.31;101618.38;1634969;86;21590;-50
2021/07/28 06:30:39;;;;;;;6.30;4.67;;;;;;;32.67;54.38;101611.94;1626940;87;21048;-53
2021/07/28 06:33:06;;;;;;;4.92;4.42;;;;;;;32.65;54.42;101616.64;1630183;87;21024;-50
2021/07/28 06:35:33;;;;;;;6.00;4.60;;;;;;;32.63;54.35;101615.95;1635170;87;21060;-53
2021/07/28 06:38:00;;;;;;;7.62;4.37;;;;;;;32.62;54.38;101614.27;1641724;86;21051;-51
2021/07/28 06:40:27;;;;;;;8.20;4.55;;;;;;;32.63;54.26;101618.64;1632499;87;21520;-49
2021/07/28 06:42:54;;;;;;;8.35;4.90;;;;;;;32.62;54.24;101616.97;1635448;87;21590;-50
2021/07/28 06:45:21;;;;;;;7.60;6.90;;;;;;;32.61;54.28;101613.42;1635699;87;21071;-54
2021/07/28 06:47:48;;;;;;;14.75;11.70;;;;;;;32.61;54.25;101604.48;1631097;86;21020;-50
2021/07/28 06:50:15;;;;;;;9.50;5.97;;;;;;;32.62;54.24;101608.88;1635980;86;21532;-50
2021/07/28 06:52:43;;;;;;;6.53;4.75;;;;;;;32.63;54.04;101606.52;1632412;87;21103;-52
2021/07/28 06:55:11;;;;;;;7.53;4.65;;;;;;;32.65;54.05;101603.16;1628367;86;21591;-49
2021/07/28 06:57:39;;;;;;;5.60;4.65;;;;;;;32.65;54.23;101601.33;1637339;87;21562;-50
2021/07/28 07:00:07;;;;;;;6.12;4.50;;;;;;;32.65;54.09;101599.13;1629231;87;21583;-52
2021/07/28 07:02:34;;;;;;;8.15;4.75;;;;;;;32.65;54.05;101593.23;1637713;86;21079;-49
2021/07/28 07:05:01;;;;;;;11.00;4.60;;;;;;;32.66;54.02;101600.34;1634798;86;21104;-52
2021/07/28 07:07:28;;;;;;;7.00;4.65;;;;;;;32.69;54.15;101607.23;1644467;86;21579;-52
2021/07/28 07:09:56;;;;;;;8.63;5.37;;;;;;;32.70;54.06;101610.30;1632348;86;21028;-49
2021/07/28 07:12:24;;;;;;;8.30;5.22;;;;;;;32.71;54.08;101609.28;1631276;87;21067;-49
2021/07/28 07:14:51;;;;;;;10.75;5.45;;;;;;;32.73;54.00;101601.88;1633765;86;21599;-48
2021/07/28 07:17:18;;;;;;;7.40;5.12;;;;;;;32.78;53.87;101600.92;1629263;86;21631;-51
2021/07/28 07:19:47;;;;;;;6.97;4.65;;;;;;;32.82;53.58;101596.91;1622431;86;21106;-50
2021/07/28 07:22:15;;;;;;;6.70;4.85;;;;;;;32.87;53.31;101606.73;1626603;87;21079;-50
2021/07/28 07:24:43;;;;;;;5.40;4.90;;;;;;;32.90;53.18;101599.67;1639641;86;21550;-49
2021/07/28 07:27:10;;;;;;;16.17;14.68;;;;;;;32.95;52.99;101605.95;1637413;87;21056;-49
2021/07/28 07:29:37;;;;;;;15.45;12.93;;;;;;;32.97;52.71;101598.05;1634171;86;21061;-50
2021/07/28 07:32:05;;;;;;;8.88;5.90;;;;;;;33.01;52.50;101603.51;1635086;86;21110;-49
2021/07/28 07:34:33;;;;;;;6.10;5.10;;;;;;;33.04;52.03;101601.83;1605134;88;21569;-53
2021/07/28 07:36:59;;;;;;;7.20;4.97;;;;;;;33.04;52.10;101604.52;1611082;88;21006;-50
2021/07/28 07:39:26;;;;;;;7.25;5.30;;;;;;;33.05;52.09;101606.23;1610999;88;21620;-50
2021/07/28 07:41:53;;;;;;;7.70;5.08;;;;;;;33.07;52.20;101608.27;1603216;88;21064;-50
2021/07/28 07:44:20;;;;;;;8.55;5.58;;;;;;;33.09;52.28;101604.91;1604624;88;21851;-50
2021/07/28 07:46:47;;;;;;;8.20;4.67;;;;;;;33.11;52.22;101605.59;1604121;88;21124;-50
2021/07/28 07:49:14;;;;;;;6.22;4.60;;;;;;;33.13;52.25;101612.17;1591937;89;21082;-49
2021/07/28 07:51:40;;;;;;;7.83;5.45;;;;;;;33.14;52.08;101612.00;1622254;87;21088;-50
2021/07/28 07:54:08;;;;;;;6.10;5.45;;;;;;;33.16;52.22;101607.30;1636542;87;21050;-50
2021/07/28 07:56:35;;;;;;;11.43;5.20;;;;;;;33.18;52.24;101612.55;1604189;88;21084;-47
2021/07/28 07:59:03;;;;;;;8.23;5.67;;;;;;;33.18;52.43;101610.68;1607995;88;21536;-51
2021/07/28 08:01:29;;;;;;;6.95;5.17;;;;;;;33.20;52.56;101605.97;1614878;87;21045;-50
2021/07/28 08:03:57;;;;;;;5.75;5.15;;;;;;;33.24;52.49;101615.44;1592637;86;21600;-50
2021/07/28 08:06:24;;;;;;;5.97;4.95;;;;;;;33.27;52.39;101614.28;1604387;87;21060;-47
2021/07/28 08:08:51;;;;;;;8.55;5.00;;;;;;;33.28;52.10;101609.24;1606363;88;21744;-48
2021/07/28 08:11:17;;;;;;;8.70;7.03;;;;;;;33.29;52.19;101603.68;1609688;88;21061;-50
2021/07/28 08:13:45;;;;;;;21.90;19.85;;;;;;;33.30;52.10;101597.30;1612746;87;21128;-52
2021/07/28 08:16:20;;;;;;;11.68;7.72;;;;;;;33.32;51.97;101600.68;1612080;87;21613;-53
2021/07/28 08:18:48;;;;;;;10.82;6.15;;;;;;;33.35;51.65;101597.64;1580151;89;21069;-50
2021/07/28 08:21:16;;;;;;;6.80;4.95;;;;;;;33.37;51.34;101601.03;1608406;88;21060;-51
2021/07/28 08:23:45;;;;;;;15.13;12.40;;;;;;;33.38;51.01;101597.34;1607959;88;21107;-50
2021/07/28 08:26:14;;;;;;;9.85;7.80;;;;;;;33.40;50.92;101594.47;1600039;88;21185;-48
2021/07/28 08:28:42;;;;;;;11.95;10.70;;;;;;;33.42;50.94;101600.05;1599351;88;21065;-53
2021/07/28 08:31:09;;;;;;;8.05;5.78;;;;;;;33.43;50.80;101596.83;1609310;88;21066;-54
2021/07/28 08:33:35;;;;;;;11.35;5.03;;;;;;;33.45;50.63;101592.12;1605212;88;21004;-49
2021/07/28 08:36:02;;;;;;;9.38;4.90;;;;;;;33.46;50.57;101597.38;1615799;87;21067;-49
2021/07/28 08:38:29;;;;;;;8.55;5.20;;;;;;;33.48;50.50;101602.11;1608884;88;21025;-50
2021/07/28 08:41:01;;;;;;;6.90;5.20;;;;;;;33.49;50.51;101605.17;1617411;86;21072;-54
2021/07/28 08:43:32;;;;;;;8.98;4.70;;;;;;;33.49;50.57;101601.12;1590636;88;21025;-51
2021/07/28 08:46:01;;;;;;;;;;;;;;;33.52;50.36;101600.81;1492656;95;21648;-51
2021/07/28 08:48:29;;;;;;;10.32;4.80;;;;;;;33.53;50.36;101601.14;1455629;96;20164;-51
2021/07/28 08:51:04;;;;;;;6.87;5.30;;;;;;;33.52;50.39;101598.11;1464403;97;21116;-51
2021/07/28 08:53:34;;;;;;;7.97;5.10;;;;;;;33.50;50.40;101595.23;1479236;95;21155;-50
2021/07/28 08:56:02;;;;;;;6.53;4.95;;;;;;;33.47;50.57;101596.36;1455785;97;21588;-50
2021/07/28 08:58:29;;;;;;;8.75;5.17;;;;;;;33.44;50.65;101601.23;1458754;97;21081;-51
2021/07/28 09:00:56;;;;;;;7.95;5.15;;;;;;;33.42;50.67;101596.01;1450426;97;21589;-50
2021/07/28 09:03:23;;;;;;;9.43;5.40;;;;;;;33.43;50.58;101599.53;1458727;97;21172;-50
2021/07/28 09:05:59;;;;;;;6.05;5.00;;;;;;;33.44;50.27;101599.89;1449398;98;21095;-50
2021/07/28 09:08:31;;;;;;;5.42;4.50;;;;;;;33.45;49.94;101602.91;1463770;97;21118;-52
2021/07/28 09:11:04;;;;;;;5.08;4.50;;;;;;;33.43;49.79;101605.78;1442209;98;21058;-48
2021/07/28 09:13:38;;;;;;;9.83;5.30;;;;;;;33.40;49.87;101606.13;1462861;97;21123;-49
2021/07/28 09:16:07;;;;;;;7.47;5.60;;;;;;;33.35;50.29;101601.69;1484540;95;21065;-48
2021/07/28 09:18:42;;;;;;;10.95;5.25;;;;;;;33.30;50.50;101605.39;1485981;95;21026;-50
2021/07/28 09:21:29;;;;;;;7.78;5.30;;;;;;;33.26;50.56;101603.98;1491677;95;21053;-49
2021/07/28 09:24:10;;;;;;;11.63;5.55;;;;;;;33.22;50.71;101602.61;1448971;97;21076;-49
2021/07/28 09:29:21;;;;;;;10.35;5.10;;;;;;;33.21;50.81;101607.68;1365917;104;21191;-49
2021/07/28 09:31:53;;;;;;;8.55;7.62;;;;;;;33.24;50.53;101606.00;1371390;104;21210;-49
2021/07/28 09:34:25;;;;;;;5.42;5.00;;;;;;;33.29;50.19;101605.03;1374182;104;21198;-50
2021/07/28 09:37:04;;;;;;;7.87;5.17;;;;;;;33.34;49.98;101601.37;1376931;104;21105;-51
2021/07/28 09:39:38;;;;;;;9.13;6.15;;;;;;;33.38;49.71;101601.39;1374320;104;21093;-49
2021/07/28 09:42:16;;;;;;;8.63;5.80;;;;;;;33.42;49.31;101598.71;1372496;104;21572;-50
2021/07/28 09:44:52;;;;;;;8.83;5.10;;;;;;;33.47;48.91;101600.90;1374966;104;21134;-49
2021/07/28 09:47:22;;;;;;;5.37;4.75;;;;;;;33.50;48.79;101596.08;1351977;105;21191;-50
2021/07/28 09:50:09;;;;;;;5.75;5.10;;;;;;;33.54;48.82;101598.80;1392903;101;21118;-50
2021/07/28 09:52:38;;;;;;;8.25;7.30;;;;;;;33.57;48.77;101597.11;1415982;99;21749;-49
2021/07/28 09:55:30;;;;;;;13.22;7.62;;;;;;;33.61;48.62;101597.13;1396235;101;21249;-48
2021/07/28 09:57:59;;;;;;;10.40;6.85;;;;;;;33.65;48.89;101589.05;1397683;101;21108;-50
2021/07/28 10:00:28;;;;;;;8.03;7.28;;;;;;;33.70;48.94;101586.36;1397552;101;21094;-49
2021/07/28 10:03:04;;;;;;;12.73;8.98;;;;;;;33.74;48.82;101584.53;1385365;102;22028;-50
2021/07/28 10:05:32;;;;;;;14.47;9.70;;;;;;;33.76;48.56;101584.39;1383169;103;21160;-50
2021/07/28 10:08:00;;;;;;;11.38;9.58;;;;;;;33.81;48.58;101587.42;1395605;102;21154;-50
2021/07/28 10:10:27;;;;;;;18.07;11.73;;;;;;;33.83;48.32;101577.31;1384228;102;21126;-50
2021/07/28 10:12:54;;;;;;;13.13;10.20;;;;;;;33.88;47.89;101576.33;1392984;102;21093;-51
2021/07/28 10:15:21;;;;;;;13.48;8.70;;;;;;;33.93;47.80;101578.02;1390535;102;21107;-51
2021/07/28 10:17:50;;;;;;;9.30;6.70;;;;;;;33.97;47.74;101576.17;1398821;101;21201;-50
2021/07/28 10:20:17;;;;;;;8.63;5.60;;;;;;;33.99;47.66;101572.84;1413703;100;21149;-50
2021/07/28 10:22:44;;;;;;;9.58;5.53;;;;;;;34.02;47.53;101572.52;1433779;96;21654;-48
2021/07/28 10:25:15;;;;;;;6.10;5.50;;;;;;;34.03;47.58;101566.59;1480194;92;21769;-50
2021/07/28 10:27:50;;;;;;;8.15;5.85;;;;;;;34.05;47.80;101572.67;1537753;92;21158;-51
2021/07/28 10:30:20;;;;;;;7.60;4.87;;;;;;;34.07;47.63;101569.30;1505423;93;21132;-50
2021/07/28 10:32:47;;;;;;;9.05;7.10;;;;;;;34.08;47.68;101572.36;1494442;92;21097;-50
2021/07/28 10:35:28;;;;;;;7.22;5.55;;;;;;;34.09;47.68;101567.28;1544885;92;21572;-53
2021/07/28 10:37:57;;;;;;;8.68;5.22;;;;;;;34.09;47.97;101564.58;1542591;91;21115;-49
2021/07/28 10:40:31;;;;;;;5.45;4.87;;;;;;;34.10;48.15;101568.98;1544053;91;21105;-50
2021/07/28 10:43:01;;;;;;;7.22;5.50;;;;;;;34.12;48.13;101564.26;1540823;92;21146;-50
2021/07/28 10:45:56;;;;;;;7.97;5.90;;;;;;;34.17;48.08;101564.62;1534599;92;21607;-50
2021/07/28 10:48:51;;;;;;;6.08;5.05;;;;;;;34.19;47.97;101557.19;1487963;95;21069;-50
2021/07/28 10:51:52;;;;;;;7.03;4.83;;;;;;;34.23;47.95;101559.90;1466599;96;22055;-50
2021/07/28 10:54:19;;;;;;;10.60;4.78;;;;;;;34.24;48.01;101552.12;1490113;95;21077;-51
2021/07/28 10:57:08;;;;;;;6.92;5.15;;;;;;;34.27;47.85;101554.50;1474169;96;21063;-48
2021/07/28 10:59:42;;;;;;;6.60;4.62;;;;;;;34.27;47.72;101552.62;1470552;96;21589;-49
2021/07/28 11:02:10;;;;;;;6.45;4.80;;;;;;;34.28;47.94;101542.66;1467925;96;21122;-47
2021/07/28 11:04:38;;;;;;;6.50;5.12;;;;;;;34.30;47.82;101548.74;1435544;98;21150;-48
2021/07/28 11:07:04;;;;;;;5.92;4.67;;;;;;;34.29;47.84;101539.78;1502335;93;21103;-49
2021/07/28 11:09:32;;;;;;;8.48;4.42;;;;;;;34.31;47.78;101538.29;1483945;95;21682;-51
2021/07/28 11:12:01;;;;;;;9.48;5.35;;;;;;;34.31;47.78;101539.64;1526873;92;22172;-51
2021/07/28 11:14:28;;;;;;;11.55;4.85;;;;;;;34.30;47.75;101531.19;1536900;92;21163;-51
2021/07/28 11:16:55;;;;;;;10.03;5.08;;;;;;;34.30;47.89;101529.83;1529855;92;21139;-51
2021/07/28 11:19:22;;;;;;;7.45;5.20;;;;;;;34.30;47.93;101529.83;1509241;94;21112;-51
2021/07/28 11:21:49;;;;;;;9.75;7.37;;;;;;;34.28;48.07;101527.80;1515734;93;21148;-49
2021/07/28 11:24:17;;;;;;;15.55;10.82;;;;;;;34.29;48.04;101530.86;1537107;92;21056;-49
2021/07/28 11:26:47;;;;;;;8.65;6.12;;;;;;;34.29;48.06;101530.33;1552000;92;21030;-51
2021/07/28 11:29:18;;;;;;;6.83;5.00;;;;;;;34.29;47.85;101523.58;1547500;91;21088;-50
2021/07/28 11:31:48;;;;;;;5.58;4.03;;;;;;;34.28;47.92;101525.10;1534546;92;21920;-47
2021/07/28 11:34:21;;;;;;;8.30;4.70;;;;;;;34.28;47.88;101517.84;1499544;95;21662;-50
2021/07/28 11:39:31;;;;;;;6.27;4.43;;;;;;;34.25;47.81;101510.59;1397181;101;21152;-51
2021/07/28 11:42:10;;;;;;;8.10;5.20;;;;;;;34.21;47.83;101505.19;1394315;101;21067;-49
2021/07/28 11:44:44;;;;;;;12.28;9.10;;;;;;;34.18;47.94;101512.27;1397527;101;21136;-49